sensor_id;sensor_type;location;lat;lon;timestamp;pressure;altitude;pressure_sealevel;temperature;humidity
71384;BME280;67558;52.166;5.004;2023-04-08T00:01:27;102393.91;;;10.39;70.36
71384;BME280;67558;52.166;5.004;2023-04-08T00:03:53;102393.69;;;10.40;70.34
71384;BME280;67558;52.166;5.004;2023-04-08T00:06:18;102390.91;;;10.35;70.55
71384;BME280;67558;52.166;5.004;2023-04-08T00:08:43;102394.06;;;10.25;70.70
71384;BME280;67558;52.166;5.004;2023-04-08T00:11:09;102387.38;;;10.16;71.03
71384;BME280;67558;52.166;5.004;2023-04-08T00:13:34;102407.88;;;10.22;71.15
71384;BME280;67558;52.166;5.004;2023-04-08T00:16:00;102395.19;;;10.18;70.95
71384;BME280;67558;52.166;5.004;2023-04-08T00:18:26;102403.94;;;10.25;71.02
71384;BME280;67558;52.166;5.004;2023-04-08T00:20:51;102388.88;;;10.12;70.81
71384;BME280;67558;52.166;5.004;2023-04-08T00:23:17;102396.13;;;10.23;70.43
71384;BME280;67558;52.166;5.004;2023-04-08T00:25:43;102385.75;;;10.15;70.68
71384;BME280;67558;52.166;5.004;2023-04-08T00:28:09;102397.63;;;10.19;70.89
71384;BME280;67558;52.166;5.004;2023-04-08T00:30:35;102399.34;;;10.14;70.79
71384;BME280;67558;52.166;5.004;2023-04-08T00:33:00;102393.03;;;10.08;70.75
71384;BME280;67558;52.166;5.004;2023-04-08T00:35:26;102377.13;;;9.95;70.61
71384;BME280;67558;52.166;5.004;2023-04-08T00:37:51;102386.56;;;9.97;70.67
71384;BME280;67558;52.166;5.004;2023-04-08T00:41:03;102398.66;;;10.00;70.89
71384;BME280;67558;52.166;5.004;2023-04-08T00:43:28;102401.19;;;9.95;70.63
71384;BME280;67558;52.166;5.004;2023-04-08T00:45:54;102388.94;;;9.87;70.79
71384;BME280;67558;52.166;5.004;2023-04-08T00:48:20;102388.78;;;9.82;70.99
71384;BME280;67558;52.166;5.004;2023-04-08T00:50:45;102405.41;;;9.84;70.98
71384;BME280;67558;52.166;5.004;2023-04-08T00:53:16;102394.78;;;9.77;71.11
71384;BME280;67558;52.166;5.004;2023-04-08T00:55:41;102403.84;;;9.76;71.23
71384;BME280;67558;52.166;5.004;2023-04-08T00:58:07;102343.97;;;9.40;71.58
71384;BME280;67558;52.166;5.004;2023-04-08T01:00:34;102405.34;;;9.72;71.73
71384;BME280;67558;52.166;5.004;2023-04-08T01:03:15;102400.56;;;9.74;71.89
71384;BME280;67558;52.166;5.004;2023-04-08T01:08:16;102385.00;;;9.71;71.92
71384;BME280;67558;52.166;5.004;2023-04-08T01:10:43;102395.53;;;9.84;71.82
71384;BME280;67558;52.166;5.004;2023-04-08T01:13:13;102393.03;;;9.90;72.16
71384;BME280;67558;52.166;5.004;2023-04-08T01:15:41;102401.19;;;9.95;71.85
71384;BME280;67558;52.166;5.004;2023-04-08T01:18:10;102403.66;;;9.96;71.72
71384;BME280;67558;52.166;5.004;2023-04-08T01:20:38;102410.84;;;9.96;71.58
71384;BME280;67558;52.166;5.004;2023-04-08T01:25:57;102419.59;;;9.84;71.61
71384;BME280;67558;52.166;5.004;2023-04-08T01:28:26;102409.03;;;9.71;71.85
71384;BME280;67558;52.166;5.004;2023-04-08T01:30:54;102413.78;;;9.69;72.20
71384;BME280;67558;52.166;5.004;2023-04-08T01:33:21;102407.25;;;9.65;72.29
71384;BME280;67558;52.166;5.004;2023-04-08T01:35:47;102421.94;;;9.74;72.25
71384;BME280;67558;52.166;5.004;2023-04-08T01:38:17;102419.72;;;9.71;72.83
71384;BME280;67558;52.166;5.004;2023-04-08T01:40:45;102431.63;;;9.75;72.50
71384;BME280;67558;52.166;5.004;2023-04-08T01:43:13;102421.13;;;9.74;72.31
71384;BME280;67558;52.166;5.004;2023-04-08T01:45:39;102421.72;;;9.76;72.39
71384;BME280;67558;52.166;5.004;2023-04-08T01:48:04;102422.53;;;9.76;72.46
71384;BME280;67558;52.166;5.004;2023-04-08T01:50:31;102430.34;;;9.78;72.70
71384;BME280;67558;52.166;5.004;2023-04-08T01:52:59;102428.28;;;9.80;72.54
71384;BME280;67558;52.166;5.004;2023-04-08T01:55:25;102414.97;;;9.73;72.63
71384;BME280;67558;52.166;5.004;2023-04-08T01:57:52;102421.38;;;9.72;72.75
71384;BME280;67558;52.166;5.004;2023-04-08T02:00:21;102426.88;;;9.77;72.82
71384;BME280;67558;52.166;5.004;2023-04-08T02:02:48;102411.31;;;9.68;72.69
71384;BME280;67558;52.166;5.004;2023-04-08T02:05:14;102437.16;;;9.74;72.91
71384;BME280;67558;52.166;5.004;2023-04-08T02:07:40;102428.19;;;9.68;72.93
71384;BME280;67558;52.166;5.004;2023-04-08T02:10:05;102424.69;;;9.68;73.01
71384;BME280;67558;52.166;5.004;2023-04-08T02:12:32;102428.47;;;9.60;73.13
71384;BME280;67558;52.166;5.004;2023-04-08T02:14:57;102428.00;;;9.63;73.00
71384;BME280;67558;52.166;5.004;2023-04-08T02:17:45;102424.53;;;9.62;73.08
71384;BME280;67558;52.166;5.004;2023-04-08T02:20:18;102421.25;;;9.60;73.44
71384;BME280;67558;52.166;5.004;2023-04-08T02:25:30;102419.03;;;9.57;73.40
71384;BME280;67558;52.166;5.004;2023-04-08T02:27:59;102428.00;;;9.63;73.27
71384;BME280;67558;52.166;5.004;2023-04-08T02:30:26;102426.59;;;9.60;73.27
71384;BME280;67558;52.166;5.004;2023-04-08T02:32:53;102429.50;;;9.59;73.27
71384;BME280;67558;52.166;5.004;2023-04-08T02:35:19;102432.41;;;9.57;73.30
71384;BME280;67558;52.166;5.004;2023-04-08T02:37:45;102437.50;;;9.59;72.99
71384;BME280;67558;52.166;5.004;2023-04-08T02:40:40;102435.28;;;9.56;73.23
71384;BME280;67558;52.166;5.004;2023-04-08T02:43:05;102431.19;;;9.53;73.11
71384;BME280;67558;52.166;5.004;2023-04-08T02:45:34;102428.25;;;9.36;73.47
71384;BME280;67558;52.166;5.004;2023-04-08T02:48:02;102450.56;;;9.42;73.54
71384;BME280;67558;52.166;5.004;2023-04-08T02:50:28;102443.75;;;9.46;73.60
71384;BME280;67558;52.166;5.004;2023-04-08T02:52:53;102442.63;;;9.35;73.61
71384;BME280;67558;52.166;5.004;2023-04-08T02:55:18;102446.72;;;9.38;73.54
71384;BME280;67558;52.166;5.004;2023-04-08T02:57:46;102455.91;;;9.42;73.70
71384;BME280;67558;52.166;5.004;2023-04-08T03:00:12;102450.22;;;9.38;73.59
71384;BME280;67558;52.166;5.004;2023-04-08T03:02:37;102431.22;;;9.21;73.56
71384;BME280;67558;52.166;5.004;2023-04-08T03:05:03;102449.59;;;9.36;73.17
71384;BME280;67558;52.166;5.004;2023-04-08T03:07:30;102464.16;;;9.40;73.17
71384;BME280;67558;52.166;5.004;2023-04-08T03:09:55;102458.44;;;9.37;73.20
71384;BME280;67558;52.166;5.004;2023-04-08T03:12:21;102466.28;;;9.32;73.32
71384;BME280;67558;52.166;5.004;2023-04-08T03:14:48;102462.22;;;9.22;73.36
71384;BME280;67558;52.166;5.004;2023-04-08T03:17:13;102457.28;;;9.26;73.52
71384;BME280;67558;52.166;5.004;2023-04-08T03:19:38;102449.91;;;9.21;73.93
71384;BME280;67558;52.166;5.004;2023-04-08T03:22:04;102446.00;;;9.24;73.90
71384;BME280;67558;52.166;5.004;2023-04-08T03:24:29;102460.09;;;9.31;73.80
71384;BME280;67558;52.166;5.004;2023-04-08T03:26:55;102452.94;;;9.32;73.80
71384;BME280;67558;52.166;5.004;2023-04-08T03:29:20;102460.09;;;9.38;74.16
71384;BME280;67558;52.166;5.004;2023-04-08T03:31:45;102452.28;;;9.36;74.12
71384;BME280;67558;52.166;5.004;2023-04-08T03:34:11;102463.50;;;9.45;73.98
71384;BME280;67558;52.166;5.004;2023-04-08T03:36:36;102462.47;;;9.46;73.80
71384;BME280;67558;52.166;5.004;2023-04-08T03:39:02;102453.03;;;9.43;74.11
71384;BME280;67558;52.166;5.004;2023-04-08T03:41:28;102455.44;;;9.52;74.15
71384;BME280;67558;52.166;5.004;2023-04-08T03:43:53;102443.75;;;9.46;73.87
71384;BME280;67558;52.166;5.004;2023-04-08T03:46:18;102464.50;;;9.51;74.06
71384;BME280;67558;52.166;5.004;2023-04-08T03:48:44;102455.25;;;9.53;73.95
71384;BME280;67558;52.166;5.004;2023-04-08T03:51:09;102461.38;;;9.54;73.61
71384;BME280;67558;52.166;5.004;2023-04-08T03:53:35;102472.47;;;9.57;73.87
71384;BME280;67558;52.166;5.004;2023-04-08T03:56:00;102468.91;;;9.63;73.99
71384;BME280;67558;52.166;5.004;2023-04-08T03:58:27;102450.66;;;9.60;73.55
71384;BME280;67558;52.166;5.004;2023-04-08T04:00:53;102469.09;;;9.69;73.64
71384;BME280;67558;52.166;5.004;2023-04-08T04:03:18;102466.81;;;9.72;73.65
71384;BME280;67558;52.166;5.004;2023-04-08T04:05:43;102467.28;;;9.62;74.04
71384;BME280;67558;52.166;5.004;2023-04-08T04:08:09;102462.59;;;9.58;74.00
71384;BME280;67558;52.166;5.004;2023-04-08T04:10:34;102471.63;;;9.57;73.90
71384;BME280;67558;52.166;5.004;2023-04-08T04:13:00;102475.94;;;9.58;74.12
71384;BME280;67558;52.166;5.004;2023-04-08T04:15:25;102471.88;;;9.55;74.20
71384;BME280;67558;52.166;5.004;2023-04-08T04:17:50;102472.28;;;9.52;74.14
71384;BME280;67558;52.166;5.004;2023-04-08T04:20:16;102479.28;;;9.53;74.16
71384;BME280;67558;52.166;5.004;2023-04-08T04:22:42;102481.13;;;9.53;73.97
71384;BME280;67558;52.166;5.004;2023-04-08T04:25:08;102489.13;;;9.53;74.42
71384;BME280;67558;52.166;5.004;2023-04-08T04:27:33;102479.50;;;9.52;74.29
71384;BME280;67558;52.166;5.004;2023-04-08T04:29:59;102481.34;;;9.51;74.16
71384;BME280;67558;52.166;5.004;2023-04-08T04:32:25;102480.09;;;9.54;74.17
71384;BME280;67558;52.166;5.004;2023-04-08T04:34:50;102488.72;;;9.56;74.25
71384;BME280;67558;52.166;5.004;2023-04-08T04:37:16;102479.09;;;9.48;74.54
71384;BME280;67558;52.166;5.004;2023-04-08T04:39:41;102500.59;;;9.60;74.50
71384;BME280;67558;52.166;5.004;2023-04-08T04:42:06;102498.13;;;9.58;74.28
71384;BME280;67558;52.166;5.004;2023-04-08T04:44:32;102508.97;;;9.70;74.04
71384;BME280;67558;52.166;5.004;2023-04-08T04:46:57;102511.63;;;9.70;74.30
71384;BME280;67558;52.166;5.004;2023-04-08T04:49:22;102514.13;;;9.65;74.42
71384;BME280;67558;52.166;5.004;2023-04-08T04:51:48;102522.59;;;9.62;74.36
71384;BME280;67558;52.166;5.004;2023-04-08T04:54:13;102522.59;;;9.62;74.59
71384;BME280;67558;52.166;5.004;2023-04-08T04:56:38;102516.19;;;9.63;74.55
71384;BME280;67558;52.166;5.004;2023-04-08T04:59:04;102522.72;;;9.67;74.41
71384;BME280;67558;52.166;5.004;2023-04-08T05:01:30;102524.75;;;9.72;74.26
71384;BME280;67558;52.166;5.004;2023-04-08T05:03:55;102524.19;;;9.63;74.45
71384;BME280;67558;52.166;5.004;2023-04-08T05:06:22;102527.91;;;9.62;74.79
71384;BME280;67558;52.166;5.004;2023-04-08T05:08:48;102516.63;;;9.60;74.56
71384;BME280;67558;52.166;5.004;2023-04-08T05:11:15;102539.22;;;9.64;74.63
71384;BME280;67558;52.166;5.004;2023-04-08T05:13:42;102530.59;;;9.62;74.33
71384;BME280;67558;52.166;5.004;2023-04-08T05:16:08;102540.06;;;9.58;74.42
71384;BME280;67558;52.166;5.004;2023-04-08T05:18:33;102526.97;;;9.50;74.53
71384;BME280;67558;52.166;5.004;2023-04-08T05:24:02;102534.72;;;9.58;74.34
71384;BME280;67558;52.166;5.004;2023-04-08T05:26:27;102534.53;;;9.59;74.43
71384;BME280;67558;52.166;5.004;2023-04-08T05:28:53;102549.66;;;9.66;74.38
71384;BME280;67558;52.166;5.004;2023-04-08T05:31:19;102541.28;;;9.62;74.15
71384;BME280;67558;52.166;5.004;2023-04-08T05:33:45;102543.34;;;9.60;73.87
71384;BME280;67558;52.166;5.004;2023-04-08T05:36:11;102546.22;;;9.58;73.90
71384;BME280;67558;52.166;5.004;2023-04-08T05:38:36;102539.63;;;9.61;73.49
71384;BME280;67558;52.166;5.004;2023-04-08T05:41:02;102543.34;;;9.60;73.58
71384;BME280;67558;52.166;5.004;2023-04-08T05:43:27;102535.75;;;9.57;73.43
71384;BME280;67558;52.166;5.004;2023-04-08T05:45:53;102553.22;;;9.59;73.29
71384;BME280;67558;52.166;5.004;2023-04-08T05:48:18;102540.94;;;9.52;73.33
71384;BME280;67558;52.166;5.004;2023-04-08T05:50:43;102552.88;;;9.49;73.63
71384;BME280;67558;52.166;5.004;2023-04-08T05:53:09;102556.75;;;9.53;73.16
71384;BME280;67558;52.166;5.004;2023-04-08T05:55:34;102552.06;;;9.49;73.44
71384;BME280;67558;52.166;5.004;2023-04-08T05:58:00;102566.38;;;9.54;73.24
71384;BME280;67558;52.166;5.004;2023-04-08T06:00:26;102557.81;;;9.46;73.00
71384;BME280;67558;52.166;5.004;2023-04-08T06:02:51;102570.97;;;9.47;73.26
71384;BME280;67558;52.166;5.004;2023-04-08T06:05:16;102553.56;;;9.38;73.11
71384;BME280;67558;52.166;5.004;2023-04-08T06:07:43;102579.19;;;9.46;72.86
71384;BME280;67558;52.166;5.004;2023-04-08T06:10:09;102576.78;;;9.31;72.79
71384;BME280;67558;52.166;5.004;2023-04-08T06:12:35;102581.97;;;9.26;72.77
71384;BME280;67558;52.166;5.004;2023-04-08T06:15:03;102594.06;;;9.28;72.44
71384;BME280;67558;52.166;5.004;2023-04-08T06:17:31;102575.25;;;9.16;71.95
71384;BME280;67558;52.166;5.004;2023-04-08T06:19:56;102590.59;;;9.28;72.36
71384;BME280;67558;52.166;5.004;2023-04-08T06:22:22;102585.84;;;9.30;72.47
71384;BME280;67558;52.166;5.004;2023-04-08T06:24:47;102582.94;;;9.31;72.00
71384;BME280;67558;52.166;5.004;2023-04-08T06:27:13;102590.13;;;9.37;71.54
71384;BME280;67558;52.166;5.004;2023-04-08T06:29:38;102591.31;;;9.41;71.53
71384;BME280;67558;52.166;5.004;2023-04-08T06:32:04;102600.16;;;9.49;71.00
71384;BME280;67558;52.166;5.004;2023-04-08T06:34:30;102597.47;;;9.49;71.27
71384;BME280;67558;52.166;5.004;2023-04-08T06:36:55;102615.91;;;9.57;70.73
71384;BME280;67558;52.166;5.004;2023-04-08T06:39:21;102612.41;;;9.56;70.68
71384;BME280;67558;52.166;5.004;2023-04-08T06:41:47;102618.19;;;9.53;69.65
71384;BME280;67558;52.166;5.004;2023-04-08T06:44:12;102616.53;;;9.52;69.91
71384;BME280;67558;52.166;5.004;2023-04-08T06:46:37;102616.50;;;9.59;69.90
71384;BME280;67558;52.166;5.004;2023-04-08T06:49:03;102628.00;;;9.66;70.45
71384;BME280;67558;52.166;5.004;2023-04-08T06:51:28;102635.53;;;9.76;67.40
71384;BME280;67558;52.166;5.004;2023-04-08T06:53:54;102629.13;;;9.83;69.49
71384;BME280;67558;52.166;5.004;2023-04-08T06:56:19;102620.81;;;9.98;68.79
71384;BME280;67558;52.166;5.004;2023-04-08T06:58:46;102628.88;;;10.17;67.64
71384;BME280;67558;52.166;5.004;2023-04-08T07:01:11;102628.38;;;10.33;67.59
71384;BME280;67558;52.166;5.004;2023-04-08T07:03:37;102628.53;;;10.38;67.04
71384;BME280;67558;52.166;5.004;2023-04-08T07:06:02;102630.38;;;10.63;66.73
71384;BME280;67558;52.166;5.004;2023-04-08T07:08:28;102641.97;;;10.75;66.23
71384;BME280;67558;52.166;5.004;2023-04-08T07:10:54;102645.13;;;10.91;65.89
71384;BME280;67558;52.166;5.004;2023-04-08T07:13:19;102632.91;;;10.95;65.94
71384;BME280;67558;52.166;5.004;2023-04-08T07:15:44;102640.72;;;11.15;65.47
71384;BME280;67558;52.166;5.004;2023-04-08T07:18:10;102653.38;;;11.26;64.73
71384;BME280;67558;52.166;5.004;2023-04-08T07:20:36;102650.81;;;11.31;64.39
71384;BME280;67558;52.166;5.004;2023-04-08T07:23:02;102650.81;;;11.31;64.34
71384;BME280;67558;52.166;5.004;2023-04-08T07:25:28;102657.38;;;11.35;63.90
71384;BME280;67558;52.166;5.004;2023-04-08T07:27:53;102655.16;;;11.32;63.68
71384;BME280;67558;52.166;5.004;2023-04-08T07:30:18;102669.88;;;11.41;63.71
71384;BME280;67558;52.166;5.004;2023-04-08T07:32:44;102662.25;;;11.57;63.62
71384;BME280;67558;52.166;5.004;2023-04-08T07:35:09;102656.69;;;11.70;63.28
71384;BME280;67558;52.166;5.004;2023-04-08T07:37:35;102667.47;;;12.00;62.80
71384;BME280;67558;52.166;5.004;2023-04-08T07:40:00;102657.34;;;12.14;61.87
71384;BME280;67558;52.166;5.004;2023-04-08T07:42:26;102662.16;;;12.36;61.25
71384;BME280;67558;52.166;5.004;2023-04-08T07:44:51;102674.06;;;12.40;60.98
71384;BME280;67558;52.166;5.004;2023-04-08T07:47:17;102653.03;;;12.37;60.17
71384;BME280;67558;52.166;5.004;2023-04-08T07:49:45;102664.84;;;12.47;59.43
71384;BME280;67558;52.166;5.004;2023-04-08T07:52:11;102672.53;;;12.56;59.68
71384;BME280;67558;52.166;5.004;2023-04-08T07:54:36;102675.38;;;12.61;59.33
71384;BME280;67558;52.166;5.004;2023-04-08T07:57:02;102675.59;;;12.59;58.77
71384;BME280;67558;52.166;5.004;2023-04-08T07:59:28;102680.97;;;12.59;58.95
71384;BME280;67558;52.166;5.004;2023-04-08T08:01:53;102678.88;;;12.61;58.43
71384;BME280;67558;52.166;5.004;2023-04-08T08:04:19;102677.78;;;12.62;58.67
71384;BME280;67558;52.166;5.004;2023-04-08T08:06:45;102670.13;;;12.54;58.24
71384;BME280;67558;52.166;5.004;2023-04-08T08:09:11;102672.53;;;12.79;57.22
71384;BME280;67558;52.166;5.004;2023-04-08T08:11:37;102677.22;;;12.84;56.89
71384;BME280;67558;52.166;5.004;2023-04-08T08:14:02;102676.97;;;12.85;56.87
71384;BME280;67558;52.166;5.004;2023-04-08T08:16:29;102688.19;;;13.06;56.33
71384;BME280;67558;52.166;5.004;2023-04-08T08:18:55;102685.81;;;13.21;55.93
71384;BME280;67558;52.166;5.004;2023-04-08T08:21:20;102686.28;;;13.30;55.39
71384;BME280;67558;52.166;5.004;2023-04-08T08:23:45;102686.16;;;13.37;55.35
71384;BME280;67558;52.166;5.004;2023-04-08T08:26:11;102678.69;;;13.39;55.17
71384;BME280;67558;52.166;5.004;2023-04-08T08:28:39;102678.19;;;13.42;54.95
71384;BME280;67558;52.166;5.004;2023-04-08T08:31:05;102691.47;;;13.60;54.69
71384;BME280;67558;52.166;5.004;2023-04-08T08:33:33;102683.41;;;13.60;54.75
71384;BME280;67558;52.166;5.004;2023-04-08T08:35:58;102686.44;;;13.64;54.78
71384;BME280;67558;52.166;5.004;2023-04-08T08:38:24;102690.75;;;13.65;54.43
71384;BME280;67558;52.166;5.004;2023-04-08T08:40:58;102674.03;;;13.63;53.75
71384;BME280;67558;52.166;5.004;2023-04-08T08:43:25;102688.47;;;13.73;53.59
71384;BME280;67558;52.166;5.004;2023-04-08T08:45:51;102690.94;;;13.75;53.76
71384;BME280;67558;52.166;5.004;2023-04-08T08:48:16;102686.88;;;13.72;53.42
71384;BME280;67558;52.166;5.004;2023-04-08T08:50:42;102680.56;;;13.67;52.83
71384;BME280;67558;52.166;5.004;2023-04-08T08:53:07;102693.94;;;13.79;52.76
71384;BME280;67558;52.166;5.004;2023-04-08T08:55:33;102695.16;;;13.71;52.44
71384;BME280;67558;52.166;5.004;2023-04-08T08:57:59;102697.25;;;13.40;53.13
71384;BME280;67558;52.166;5.004;2023-04-08T09:00:40;102682.56;;;13.19;51.83
71384;BME280;67558;52.166;5.004;2023-04-08T09:03:18;102709.06;;;13.16;52.05
71384;BME280;67558;52.166;5.004;2023-04-08T09:08:36;102684.22;;;13.08;52.63
71384;BME280;67558;52.166;5.004;2023-04-08T09:11:20;102711.41;;;13.24;52.39
71384;BME280;67558;52.166;5.004;2023-04-08T09:13:47;102704.28;;;13.18;52.40
71384;BME280;67558;52.166;5.004;2023-04-08T09:16:14;102722.41;;;13.10;51.81
71384;BME280;67558;52.166;5.004;2023-04-08T09:18:45;102703.94;;;12.90;52.17
71384;BME280;67558;52.166;5.004;2023-04-08T09:21:13;102711.44;;;13.00;51.94
71384;BME280;67558;52.166;5.004;2023-04-08T09:23:44;102725.34;;;12.97;51.81
71384;BME280;67558;52.166;5.004;2023-04-08T09:26:12;102714.00;;;12.95;52.19
71384;BME280;67558;52.166;5.004;2023-04-08T09:28:39;102715.28;;;12.93;51.22
71384;BME280;67558;52.166;5.004;2023-04-08T09:31:23;102719.72;;;12.87;51.22
71384;BME280;67558;52.166;5.004;2023-04-08T09:33:52;102715.53;;;12.91;51.37
71384;BME280;67558;52.166;5.004;2023-04-08T09:36:19;102715.41;;;12.98;51.70
71384;BME280;67558;52.166;5.004;2023-04-08T09:38:44;102709.44;;;12.96;51.77
71384;BME280;67558;52.166;5.004;2023-04-08T09:41:13;102715.19;;;12.99;51.76
71384;BME280;67558;52.166;5.004;2023-04-08T09:43:47;102717.97;;;13.04;51.84
71384;BME280;67558;52.166;5.004;2023-04-08T09:46:24;102723.91;;;13.06;51.63
71384;BME280;67558;52.166;5.004;2023-04-08T09:49:01;102724.16;;;13.05;51.81
71384;BME280;67558;52.166;5.004;2023-04-08T09:51:32;102710.34;;;13.01;51.70
71384;BME280;67558;52.166;5.004;2023-04-08T09:54:08;102718.66;;;13.11;51.17
71384;BME280;67558;52.166;5.004;2023-04-08T09:56:46;102725.09;;;13.10;51.89
71384;BME280;67558;52.166;5.004;2023-04-08T09:59:16;102723.22;;;13.11;51.53
71384;BME280;67558;52.166;5.004;2023-04-08T10:01:49;102728.59;;;13.11;51.20
71384;BME280;67558;52.166;5.004;2023-04-08T10:04:19;102726.97;;;13.10;50.97
71384;BME280;67558;52.166;5.004;2023-04-08T10:07:07;102728.72;;;13.04;51.26
71384;BME280;67558;52.166;5.004;2023-04-08T10:09:33;102721.47;;;13.05;51.21
71384;BME280;67558;52.166;5.004;2023-04-08T10:12:00;102714.22;;;13.05;51.41
71384;BME280;67558;52.166;5.004;2023-04-08T10:14:26;102711.28;;;13.07;51.42
71384;BME280;67558;52.166;5.004;2023-04-08T10:17:27;102714.44;;;13.16;50.93
71384;BME280;67558;52.166;5.004;2023-04-08T10:20:00;102720.88;;;13.15;50.70
71384;BME280;67558;52.166;5.004;2023-04-08T10:22:45;102719.72;;;13.10;50.36
71384;BME280;67558;52.166;5.004;2023-04-08T10:25:33;102714.13;;;13.12;50.48
71384;BME280;67558;52.166;5.004;2023-04-08T10:28:00;102722.38;;;13.22;50.42
71384;BME280;67558;52.166;5.004;2023-04-08T10:32:56;102714.56;;;13.21;50.11
71384;BME280;67558;52.166;5.004;2023-04-08T10:35:29;102713.59;;;13.27;50.26
71384;BME280;67558;52.166;5.004;2023-04-08T10:37:56;102704.03;;;13.31;49.88
71384;BME280;67558;52.166;5.004;2023-04-08T10:40:22;102709.28;;;13.38;48.81
71384;BME280;67558;52.166;5.004;2023-04-08T10:42:53;102704.03;;;13.43;48.39
71384;BME280;67558;52.166;5.004;2023-04-08T10:45:19;102694.66;;;13.45;48.46
71384;BME280;67558;52.166;5.004;2023-04-08T10:47:45;102704.13;;;13.48;48.31
71384;BME280;67558;52.166;5.004;2023-04-08T10:50:16;102700.13;;;13.50;48.28
71384;BME280;67558;52.166;5.004;2023-04-08T10:52:47;102699.09;;;13.51;47.98
71384;BME280;67558;52.166;5.004;2023-04-08T10:55:13;102681.09;;;13.52;48.55
71384;BME280;67558;52.166;5.004;2023-04-08T10:57:39;102697.06;;;13.59;48.41
71384;BME280;67558;52.166;5.004;2023-04-08T11:00:09;102696.03;;;13.60;47.36
71384;BME280;67558;52.166;5.004;2023-04-08T11:02:37;102694.72;;;13.62;47.21
71384;BME280;67558;52.166;5.004;2023-04-08T11:05:02;102690.75;;;13.65;45.63
71384;BME280;67558;52.166;5.004;2023-04-08T11:07:29;102688.84;;;13.65;45.55
71384;BME280;67558;52.166;5.004;2023-04-08T11:09:55;102695.88;;;13.66;45.01
71384;BME280;67558;52.166;5.004;2023-04-08T11:12:21;102687.00;;;13.66;44.79
71384;BME280;67558;52.166;5.004;2023-04-08T11:14:47;102689.78;;;13.71;44.75
71384;BME280;67558;52.166;5.004;2023-04-08T11:17:17;102697.94;;;13.76;44.99
71384;BME280;67558;52.166;5.004;2023-04-08T11:19:45;102695.34;;;13.81;45.17
71384;BME280;67558;52.166;5.004;2023-04-08T11:22:11;102687.59;;;13.85;45.32
71384;BME280;67558;52.166;5.004;2023-04-08T11:24:38;102691.78;;;13.92;45.21
71384;BME280;67558;52.166;5.004;2023-04-08T11:27:04;102686.97;;;13.95;44.52
71384;BME280;67558;52.166;5.004;2023-04-08T11:29:34;102658.66;;;13.75;44.19
71384;BME280;67558;52.166;5.004;2023-04-08T11:32:00;102690.03;;;13.98;44.27
71384;BME280;67558;52.166;5.004;2023-04-08T11:34:26;102686.59;;;14.03;44.08
71384;BME280;67558;52.166;5.004;2023-04-08T11:36:52;102689.28;;;14.03;43.96
71384;BME280;67558;52.166;5.004;2023-04-08T11:39:21;102667.50;;;13.87;43.86
71384;BME280;67558;52.166;5.004;2023-04-08T11:41:47;102681.22;;;14.03;43.87
71384;BME280;67558;52.166;5.004;2023-04-08T11:44:13;102689.22;;;14.14;43.36
71384;BME280;67558;52.166;5.004;2023-04-08T11:46:39;102674.38;;;14.12;43.94
71384;BME280;67558;52.166;5.004;2023-04-08T11:49:07;102684.97;;;14.19;44.12
71384;BME280;67558;52.166;5.004;2023-04-08T11:51:53;102687.16;;;14.22;43.58
71384;BME280;67558;52.166;5.004;2023-04-08T11:54:27;102676.97;;;14.24;44.39
71384;BME280;67558;52.166;5.004;2023-04-08T11:56:53;102680.06;;;14.32;44.45
71384;BME280;67558;52.166;5.004;2023-04-08T11:59:20;102686.59;;;14.37;44.53
71384;BME280;67558;52.166;5.004;2023-04-08T12:01:45;102678.78;;;14.35;44.76
71384;BME280;67558;52.166;5.004;2023-04-08T12:04:11;102693.22;;;14.46;45.21
71384;BME280;67558;52.166;5.004;2023-04-08T12:06:37;102682.13;;;14.42;45.38
71384;BME280;67558;52.166;5.004;2023-04-08T12:09:04;102684.56;;;14.44;45.49
71384;BME280;67558;52.166;5.004;2023-04-08T12:11:32;102697.53;;;14.47;45.75
71384;BME280;67558;52.166;5.004;2023-04-08T12:13:58;102682.69;;;14.44;46.12
71384;BME280;67558;52.166;5.004;2023-04-08T12:16:24;102693.28;;;14.51;46.67
71384;BME280;67558;52.166;5.004;2023-04-08T12:18:52;102701.47;;;14.56;47.03
71384;BME280;67558;52.166;5.004;2023-04-08T12:21:17;102683.09;;;14.53;47.60
71384;BME280;67558;52.166;5.004;2023-04-08T12:23:43;102690.22;;;14.59;48.10
71384;BME280;67558;52.166;5.004;2023-04-08T12:26:09;102682.16;;;14.59;48.06
71384;BME280;67558;52.166;5.004;2023-04-08T12:28:34;102689.72;;;14.62;48.42
71384;BME280;67558;52.166;5.004;2023-04-08T12:31:00;102677.25;;;14.56;48.62
71384;BME280;67558;52.166;5.004;2023-04-08T12:33:26;102682.28;;;14.52;48.56
71384;BME280;67558;52.166;5.004;2023-04-08T12:35:52;102693.41;;;14.56;48.85
71384;BME280;67558;52.166;5.004;2023-04-08T12:38:18;102700.75;;;14.61;49.09
71384;BME280;67558;52.166;5.004;2023-04-08T12:40:44;102696.75;;;14.63;49.18
71384;BME280;67558;52.166;5.004;2023-04-08T12:43:10;102679.13;;;14.56;49.01
71384;BME280;67558;52.166;5.004;2023-04-08T12:45:36;102675.22;;;14.63;49.53
71384;BME280;67558;52.166;5.004;2023-04-08T12:48:02;102676.34;;;14.67;49.19
71384;BME280;67558;52.166;5.004;2023-04-08T12:50:27;102678.53;;;14.70;49.13
71384;BME280;67558;52.166;5.004;2023-04-08T12:52:52;102662.03;;;14.67;48.93
71384;BME280;67558;52.166;5.004;2023-04-08T12:55:18;102673.53;;;14.79;48.65
71384;BME280;67558;52.166;5.004;2023-04-08T12:57:43;102663.09;;;14.83;48.65
71384;BME280;67558;52.166;5.004;2023-04-08T13:00:09;102682.16;;;14.98;48.76
71384;BME280;67558;52.166;5.004;2023-04-08T13:02:35;102685.03;;;15.13;48.59
71384;BME280;67558;52.166;5.004;2023-04-08T13:05:04;102681.03;;;15.16;48.26
71384;BME280;67558;52.166;5.004;2023-04-08T13:07:29;102689.38;;;15.36;48.06
71384;BME280;67558;52.166;5.004;2023-04-08T13:09:55;102690.78;;;15.44;47.75
71384;BME280;67558;52.166;5.004;2023-04-08T13:12:20;102686.28;;;15.50;47.38